Disautel, Washington
Current Conditions -  °F | °C
As of 9:53 AM on Thursday 30 Oct 2014 (Local Time) from KOMK Reporting Station
Overcast Overcast  
Wind Chill: 48°   Ceiling: 4900
Heat Index: 48°   Visibility: 10mi
Dew Point: 45°   Wind: 0mph
Humidity: 89%   Direction: NA
Pressure: 30.08"   Gusts: NA
Location:  48.4274°N, 119.524°W
Report Text: KOMK 301653Z AUTO 00000KT 10SM BKN049 OVC060 09/07 A3008 RMK AO2 SLP193 T00890072
Loading
Personal Weather Stations






























Interactive Weather Map
Tropical Storm Tracking
New forecast layout! Learn more

10-Day Weather Forecast

Advertisements
Track Severe Weather on mobile